Time;durP1;ratioP1;P1;durP2;ratioP2;P2;SDS_P1;SDS_P2;PMS_P1;PMS_P2;Temp;Humidity;BMP_temperature;BMP_pressure;BME280_temperature;BME280_humidity;BME280_pressure;Samples;Min_cycle;Max_cycle;Signal;HPM_P1;HPM_P2
2022/12/21 00:02:22;;;;;;;1999.90;999.90;;;7.40;99.90;;;;;;4987018;28;20969;-70
2022/12/21 00:04:49;;;;;;;1999.90;999.90;;;7.30;99.90;;;;;;4988125;28;21115;-71
2022/12/21 00:07:16;;;;;;;1999.90;999.90;;;7.30;99.90;;;;;;4987171;28;20494;-71
2022/12/21 00:09:44;;;;;;;1999.90;999.90;;;7.20;99.90;;;;;;4987187;28;20457;-71
2022/12/21 00:12:11;;;;;;;1999.90;999.90;;;7.20;99.90;;;;;;4987108;28;20447;-71
2022/12/21 00:14:38;;;;;;;1999.90;999.90;;;7.20;99.90;;;;;;4987613;28;20474;-71
2022/12/21 00:17:04;;;;;;;1999.90;999.90;;;7.20;99.90;;;;;;4988525;28;20465;-71
2022/12/21 00:19:31;;;;;;;1999.90;999.90;;;7.20;99.90;;;;;;4986503;28;20886;-71
2022/12/21 00:21:58;;;;;;;1999.90;999.90;;;7.20;99.90;;;;;;5007552;28;20835;-72
2022/12/21 00:24:25;;;;;;;1999.90;999.90;;;7.20;99.90;;;;;;5020488;28;20473;-72
2022/12/21 00:26:53;;;;;;;1999.90;999.90;;;7.10;99.90;;;;;;5020713;28;20486;-71
2022/12/21 00:29:20;;;;;;;1999.90;999.90;;;7.10;99.90;;;;;;5001676;28;20454;-70
2022/12/21 00:31:48;;;;;;;1999.90;999.90;;;7.10;99.90;;;;;;5006502;28;20450;-71
2022/12/21 00:34:17;;;;;;;1999.90;999.90;;;7.10;99.90;;;;;;4996721;28;20475;-72
2022/12/21 00:36:45;;;;;;;1999.90;999.90;;;7.10;99.90;;;;;;4987676;28;20481;-71
2022/12/21 00:39:12;;;;;;;1999.90;999.90;;;7.10;99.90;;;;;;4986404;28;21003;-72
2022/12/21 00:41:39;;;;;;;1999.90;999.90;;;7.20;99.90;;;;;;4987316;28;20450;-71
2022/12/21 00:44:07;;;;;;;1999.90;999.90;;;7.20;99.90;;;;;;4986591;28;20466;-69
2022/12/21 00:46:34;;;;;;;1999.90;999.90;;;7.20;99.90;;;;;;4987155;28;20457;-70
2022/12/21 00:49:04;;;;;;;1999.90;999.90;;;7.20;99.90;;;;;;5005377;28;20442;-70
2022/12/21 00:51:31;;;;;;;1999.90;999.90;;;7.20;99.90;;;;;;5004256;28;20458;-70
2022/12/21 00:53:59;;;;;;;1999.90;999.90;;;7.30;99.90;;;;;;5005092;28;20473;-69
2022/12/21 00:56:27;;;;;;;1999.90;999.90;;;7.30;99.90;;;;;;5006263;28;20504;-70
2022/12/21 00:58:54;;;;;;;1999.90;999.90;;;7.30;99.90;;;;;;5006172;28;20449;-70
2022/12/21 01:01:24;;;;;;;1999.90;999.90;;;7.30;99.90;;;;;;5006135;28;20445;-70
2022/12/21 01:03:51;;;;;;;1999.90;999.90;;;7.30;99.90;;;;;;5006113;28;20469;-71
2022/12/21 01:06:20;;;;;;;1999.90;999.90;;;7.40;99.90;;;;;;5013289;28;20455;-71
2022/12/21 01:08:47;;;;;;;1999.90;999.90;;;7.40;99.90;;;;;;5005372;28;20494;-71
2022/12/21 01:11:16;;;;;;;1999.90;999.90;;;7.40;99.90;;;;;;4986188;28;20961;-70
2022/12/21 01:13:43;;;;;;;1999.90;999.90;;;7.40;99.90;;;;;;4986287;28;20505;-72
2022/12/21 01:16:13;;;;;;;1999.90;999.90;;;7.40;99.90;;;;;;4986958;28;20462;-71
2022/12/21 01:18:41;;;;;;;1999.90;999.90;;;7.40;99.90;;;;;;4986433;28;20454;-71
2022/12/21 01:21:17;;;;;;;1999.90;999.90;;;7.40;99.90;;;;;;4995461;28;20468;-71
2022/12/21 01:23:44;;;;;;;1999.90;999.90;;;7.40;99.90;;;;;;5013305;28;20478;-71
2022/12/21 01:26:11;;;;;;;1999.90;999.90;;;7.40;99.90;;;;;;4987086;28;20454;-70
2022/12/21 01:28:38;;;;;;;1999.90;999.90;;;7.40;99.90;;;;;;4986272;28;20487;-70
2022/12/21 01:31:05;;;;;;;1999.90;999.90;;;7.40;99.90;;;;;;4997089;28;20454;-70
2022/12/21 01:33:32;;;;;;;1999.90;999.90;;;7.40;99.90;;;;;;5005371;28;20452;-72
2022/12/21 01:36:05;;;;;;;1999.90;999.90;;;7.50;99.90;;;;;;5006246;28;20457;-70
2022/12/21 01:38:32;;;;;;;1999.90;999.90;;;7.50;99.90;;;;;;5004834;28;20449;-71
2022/12/21 01:40:59;;;;;;;1999.90;999.90;;;7.50;99.90;;;;;;5002649;28;20843;-70
2022/12/21 01:43:43;;;;;;;1999.90;999.90;;;7.60;99.90;;;;;;4985997;28;20450;-70
2022/12/21 01:46:13;;;;;;;1999.90;999.90;;;7.60;99.90;;;;;;4990497;28;20450;-70
2022/12/21 01:48:45;;;;;;;1999.90;999.90;;;7.60;99.90;;;;;;5024435;28;20476;-72
2022/12/21 01:51:14;;;;;;;1999.90;999.90;;;7.60;99.90;;;;;;5002001;28;20461;-72
2022/12/21 01:53:45;;;;;;;1999.90;999.90;;;7.60;99.90;;;;;;5003652;28;20882;-72
2022/12/21 01:56:17;;;;;;;1999.90;999.90;;;7.60;99.90;;;;;;5009815;28;20500;-73
2022/12/21 01:58:44;;;;;;;1999.90;999.90;;;7.70;99.90;;;;;;5005754;28;20846;-72
2022/12/21 02:01:11;;;;;;;1999.90;999.90;;;7.60;99.90;;;;;;4999095;28;20450;-72
2022/12/21 02:03:41;;;;;;;1999.90;999.90;;;7.70;99.90;;;;;;4991761;28;20435;-71
2022/12/21 02:06:10;;;;;;;1999.90;999.90;;;7.70;99.90;;;;;;4992934;28;20450;-72
2022/12/21 02:08:40;;;;;;;1999.90;999.90;;;7.70;99.90;;;;;;5006964;28;20839;-72
2022/12/21 02:11:07;;;;;;;1999.90;999.90;;;7.70;99.90;;;;;;4993070;28;20458;-72
2022/12/21 02:13:34;;;;;;;1999.90;999.90;;;7.70;99.90;;;;;;4992604;28;20451;-71
2022/12/21 02:16:14;;;;;;;1999.90;999.90;;;7.80;99.90;;;;;;4994364;28;20462;-72
2022/12/21 02:19:18;;;;;;;1999.90;999.90;;;7.80;99.90;;;;;;4996048;28;20453;-72
2022/12/21 02:21:52;;;;;;;1999.90;999.90;;;7.70;99.90;;;;;;5012829;28;20438;-72
2022/12/21 02:24:45;;;;;;;1999.90;999.90;;;7.80;99.90;;;;;;5012548;28;20469;-71
2022/12/21 02:27:30;;;;;;;1999.90;999.90;;;7.80;99.90;;;;;;5013538;28;20442;-71
2022/12/21 02:30:12;;;;;;;1999.90;999.90;;;7.80;99.90;;;;;;5012591;28;20450;-72
2022/12/21 02:33:04;;;;;;;1999.90;999.90;;;7.70;99.90;;;;;;5013395;28;20445;-71
2022/12/21 02:35:46;;;;;;;1999.90;999.90;;;7.70;99.90;;;;;;5032024;28;20464;-71
2022/12/21 02:38:26;;;;;;;1999.90;999.90;;;7.70;99.90;;;;;;5031500;28;20445;-71
2022/12/21 02:41:01;;;;;;;1999.90;999.90;;;7.60;99.90;;;;;;5031543;28;20447;-71
2022/12/21 02:46:25;;;;;;;1999.90;999.90;;;7.60;99.90;;;;;;5011817;28;20951;-71
2022/12/21 02:48:58;;;;;;;1999.90;999.90;;;7.60;99.90;;;;;;5010347;28;20488;-70
2022/12/21 02:51:33;;;;;;;1999.90;999.90;;;7.60;99.90;;;;;;5009630;28;20453;-72
2022/12/21 02:53:59;;;;;;;1999.90;999.90;;;7.60;99.90;;;;;;5010666;28;20472;-72
2022/12/21 02:56:26;;;;;;;1999.90;999.90;;;7.60;99.90;;;;;;5015627;28;20461;-74
2022/12/21 02:58:53;;;;;;;1999.90;999.90;;;7.60;99.90;;;;;;5016572;28;20451;-73
2022/12/21 03:01:39;;;;;;;1999.90;999.90;;;7.70;99.90;;;;;;5015948;28;20464;-72
2022/12/21 03:04:31;;;;;;;1999.90;999.90;;;7.70;99.90;;;;;;5015109;28;20481;-73
2022/12/21 03:07:17;;;;;;;1999.90;999.90;;;7.70;99.90;;;;;;5013260;28;21298;-72
2022/12/21 03:09:54;;;;;;;1999.90;999.90;;;7.80;99.90;;;;;;4993027;28;20443;-71
2022/12/21 03:12:35;;;;;;;1999.90;999.90;;;7.70;99.90;;;;;;4993265;28;20484;-71
2022/12/21 03:15:13;;;;;;;1999.90;999.90;;;7.80;99.90;;;;;;4993719;28;20469;-71
2022/12/21 03:17:45;;;;;;;1999.90;999.90;;;7.80;99.90;;;;;;4993208;28;20447;-71
2022/12/21 03:20:21;;;;;;;1999.90;999.90;;;7.90;99.90;;;;;;5010174;28;20967;-72
2022/12/21 03:22:53;;;;;;;1999.90;999.90;;;7.90;99.90;;;;;;5032593;28;20453;-73
2022/12/21 03:25:26;;;;;;;1999.90;999.90;;;8.00;99.90;;;;;;5022531;28;21091;-73
2022/12/21 03:27:56;;;;;;;1999.90;999.90;;;8.00;99.90;;;;;;4991272;28;21126;-73
2022/12/21 03:30:26;;;;;;;1999.90;999.90;;;8.00;99.90;;;;;;4991607;28;20957;-73
2022/12/21 03:32:58;;;;;;;1999.90;999.90;;;8.10;99.90;;;;;;4991792;28;20451;-72
2022/12/21 03:35:30;;;;;;;1999.90;999.90;;;8.10;99.90;;;;;;4992845;28;20553;-73
2022/12/21 03:38:01;;;;;;;1999.90;999.90;;;8.10;99.90;;;;;;4992364;28;20450;-72
2022/12/21 03:40:31;;;;;;;1999.90;999.90;;;8.20;99.90;;;;;;4991994;28;20514;-73
2022/12/21 03:43:04;;;;;;;1999.90;999.90;;;8.20;99.90;;;;;;4992740;28;20466;-72
2022/12/21 03:45:35;;;;;;;1999.90;999.90;;;8.20;99.90;;;;;;4992114;28;20471;-72
2022/12/21 03:48:06;;;;;;;1999.90;999.90;;;8.20;99.90;;;;;;4991921;28;20486;-73
2022/12/21 03:50:39;;;;;;;1999.90;999.90;;;8.20;99.90;;;;;;4990748;28;20455;-73
2022/12/21 03:53:11;;;;;;;1999.90;999.90;;;8.30;99.90;;;;;;5011395;28;20442;-72
2022/12/21 03:55:41;;;;;;;1999.90;999.90;;;8.30;99.90;;;;;;5011709;28;20473;-73
2022/12/21 03:58:09;;;;;;;1999.90;999.90;;;8.30;99.90;;;;;;5011643;28;20443;-73
2022/12/21 04:00:43;;;;;;;1999.90;999.90;;;8.40;99.90;;;;;;5009817;28;20454;-73
2022/12/21 04:03:16;;;;;;;1999.90;999.90;;;8.40;99.90;;;;;;5011266;28;20453;-72
2022/12/21 04:05:49;;;;;;;1999.90;999.90;;;8.40;99.90;;;;;;5011138;28;20978;-73
2022/12/21 04:08:16;;;;;;;1999.90;999.90;;;8.50;99.90;;;;;;5024870;28;20487;-73
2022/12/21 04:10:43;;;;;;;1999.90;999.90;;;8.50;99.90;;;;;;5030735;28;21229;-72
2022/12/21 04:13:09;;;;;;;1999.90;999.90;;;8.60;99.90;;;;;;5030405;28;20447;-74
2022/12/21 04:19:57;;;;;;;1999.90;999.90;;;8.60;99.90;;;;;;4991067;28;20194;-73
2022/12/21 04:21:07;;;;;;;1999.90;999.90;;;8.60;99.90;;;;;;4990989;28;20443;-72
2022/12/21 04:28:59;;;;;;;1999.90;999.90;;;8.70;99.90;;;;;;4958060;28;20482;-73
2022/12/21 04:31:26;;;;;;;1999.90;999.90;;;8.70;99.90;;;;;;4991076;28;20451;-73
2022/12/21 04:33:52;;;;;;;1999.90;999.90;;;8.70;99.90;;;;;;4992487;28;20483;-73
2022/12/21 04:39:05;;;;;;;1999.90;999.90;;;8.70;99.90;;;;;;4990184;28;20421;-73
2022/12/21 04:41:32;;;;;;;1999.90;999.90;;;8.80;99.90;;;;;;4990617;28;20454;-73
2022/12/21 04:43:59;;;;;;;1999.90;999.90;;;8.80;99.90;;;;;;4989070;28;20475;-73
2022/12/21 04:46:25;;;;;;;1999.90;999.90;;;8.90;99.90;;;;;;4989965;28;20454;-72
2022/12/21 04:48:52;;;;;;;1999.90;999.90;;;8.90;99.90;;;;;;4988028;28;20486;-73
2022/12/21 04:51:22;;;;;;;1999.90;999.90;;;8.90;99.90;;;;;;4990658;28;20470;-73
2022/12/21 04:53:50;;;;;;;1999.90;999.90;;;8.90;99.90;;;;;;4991539;28;20502;-74
2022/12/21 04:56:18;;;;;;;1999.90;999.90;;;8.90;99.90;;;;;;4990114;28;20442;-73
2022/12/21 04:58:45;;;;;;;1999.90;999.90;;;9.00;99.90;;;;;;4989353;28;20455;-73
2022/12/21 05:01:13;;;;;;;1999.90;999.90;;;9.00;99.90;;;;;;4990286;28;20446;-73
2022/12/21 05:03:40;;;;;;;1999.90;999.90;;;9.00;99.90;;;;;;4989991;28;20498;-73
2022/12/21 05:06:08;;;;;;;1999.90;999.90;;;9.00;99.90;;;;;;4989919;28;20453;-72
2022/12/21 05:08:37;;;;;;;1999.90;999.90;;;9.00;99.90;;;;;;4990795;28;21110;-72
2022/12/21 05:11:08;;;;;;;1999.90;999.90;;;9.00;99.90;;;;;;4990214;28;21011;-73
2022/12/21 05:13:35;;;;;;;1999.90;999.90;;;9.10;99.90;;;;;;4989812;28;20458;-72
2022/12/21 05:16:03;;;;;;;1999.90;999.90;;;9.10;99.90;;;;;;4990441;28;20459;-75
2022/12/21 05:18:30;;;;;;;1999.90;999.90;;;9.10;99.90;;;;;;4988727;28;20450;-74
2022/12/21 05:20:57;;;;;;;1999.90;999.90;;;9.10;99.90;;;;;;4990677;28;20454;-72
2022/12/21 05:23:23;;;;;;;1999.90;999.90;;;9.10;99.90;;;;;;4989978;28;20836;-73
2022/12/21 05:25:51;;;;;;;1999.90;999.90;;;9.10;99.90;;;;;;4990950;28;20443;-74
2022/12/21 05:28:18;;;;;;;1999.90;999.90;;;9.10;99.90;;;;;;4991908;28;20482;-74
2022/12/21 05:30:45;;;;;;;1999.90;999.90;;;9.10;99.90;;;;;;4990957;28;20458;-73
2022/12/21 05:33:12;;;;;;;1999.90;999.90;;;9.10;99.90;;;;;;4989726;28;20538;-73
2022/12/21 05:35:39;;;;;;;1999.90;999.90;;;9.10;99.90;;;;;;4990163;28;20478;-74
2022/12/21 05:38:06;;;;;;;1999.90;999.90;;;9.10;99.90;;;;;;4990053;28;20482;-71
2022/12/21 05:40:34;;;;;;;1999.90;999.90;;;9.10;99.90;;;;;;4989667;28;20457;-72
2022/12/21 05:43:02;;;;;;;1999.90;999.90;;;9.10;99.90;;;;;;4990344;28;20455;-72
2022/12/21 05:45:29;;;;;;;1999.90;999.90;;;9.10;99.90;;;;;;4991788;28;20475;-73
2022/12/21 05:47:56;;;;;;;1999.90;999.90;;;9.10;99.90;;;;;;4990517;28;20458;-72
2022/12/21 05:50:23;;;;;;;1999.90;999.90;;;9.10;99.90;;;;;;4989743;28;20482;-73
2022/12/21 05:52:50;;;;;;;1999.90;999.90;;;9.10;99.90;;;;;;4990209;28;20458;-71
2022/12/21 05:55:17;;;;;;;1999.90;999.90;;;9.10;99.90;;;;;;4990668;28;20482;-72
2022/12/21 05:57:43;;;;;;;1999.90;999.90;;;9.20;99.90;;;;;;4990077;28;20454;-72
2022/12/21 06:00:13;;;;;;;1999.90;999.90;;;9.10;99.90;;;;;;4989179;28;20446;-72
2022/12/21 06:02:40;;;;;;;1999.90;999.90;;;9.10;99.90;;;;;;4990306;28;20569;-73
2022/12/21 06:05:08;;;;;;;1999.90;999.90;;;9.10;99.90;;;;;;4989866;28;20474;-71
2022/12/21 06:07:35;;;;;;;1999.90;999.90;;;9.10;99.90;;;;;;4990290;28;20442;-73
2022/12/21 06:10:02;;;;;;;1999.90;999.90;;;9.10;99.90;;;;;;4988647;28;20474;-73
2022/12/21 06:12:29;;;;;;;1999.90;999.90;;;9.10;99.90;;;;;;4990346;28;20458;-72
2022/12/21 06:14:56;;;;;;;1999.90;999.90;;;9.20;99.90;;;;;;4990068;28;20470;-72
2022/12/21 06:17:27;;;;;;;1999.90;999.90;;;9.10;99.90;;;;;;4994722;28;20474;-71
2022/12/21 06:19:54;;;;;;;1999.90;999.90;;;9.10;99.90;;;;;;4989132;28;20447;-71
2022/12/21 06:22:21;;;;;;;1999.90;999.90;;;9.20;99.90;;;;;;4989240;28;21382;-71
2022/12/21 06:24:47;;;;;;;1999.90;999.90;;;9.20;99.90;;;;;;4989014;28;20463;-71
2022/12/21 06:27:14;;;;;;;1999.90;999.90;;;9.30;99.90;;;;;;4989065;28;20458;-71
2022/12/21 06:29:41;;;;;;;1999.90;999.90;;;9.30;99.90;;;;;;4988267;28;20482;-73
2022/12/21 06:32:08;;;;;;;1999.90;999.90;;;9.30;99.90;;;;;;4991383;28;20454;-73
2022/12/21 06:34:36;;;;;;;1999.90;999.90;;;9.30;99.90;;;;;;4993258;28;20463;-72
2022/12/21 06:37:03;;;;;;;1999.90;999.90;;;9.30;99.90;;;;;;4992029;28;20458;-71
2022/12/21 06:39:30;;;;;;;1999.90;999.90;;;9.30;99.90;;;;;;4991157;28;20455;-71
2022/12/21 06:41:57;;;;;;;1999.90;999.90;;;9.30;99.90;;;;;;4992127;28;20439;-71
2022/12/21 06:44:23;;;;;;;1999.90;999.90;;;9.30;99.90;;;;;;4990807;28;20850;-71
2022/12/21 06:46:50;;;;;;;1999.90;999.90;;;9.30;99.90;;;;;;4991321;28;20837;-72
2022/12/21 06:49:17;;;;;;;1999.90;999.90;;;9.30;99.90;;;;;;4991834;28;20509;-71
2022/12/21 06:51:45;;;;;;;1999.90;999.90;;;9.30;99.90;;;;;;4993408;28;20813;-72
2022/12/21 06:54:12;;;;;;;1999.90;999.90;;;9.30;99.90;;;;;;4991738;28;20466;-72
2022/12/21 06:56:39;;;;;;;1999.90;999.90;;;9.30;99.90;;;;;;4991955;28;20495;-70
2022/12/21 06:59:06;;;;;;;1999.90;999.90;;;9.30;99.90;;;;;;4990951;28;20458;-70
2022/12/21 07:01:34;;;;;;;1999.90;999.90;;;9.40;99.90;;;;;;4991682;28;20453;-71
2022/12/21 07:04:02;;;;;;;1999.90;999.90;;;9.40;99.90;;;;;;4992153;28;20481;-71
2022/12/21 07:06:30;;;;;;;1999.90;999.90;;;9.40;99.90;;;;;;4991764;28;20451;-73
2022/12/21 07:08:59;;;;;;;1999.90;999.90;;;9.40;99.90;;;;;;4990437;28;20486;-71
2022/12/21 07:11:28;;;;;;;1999.90;999.90;;;9.40;99.90;;;;;;4991618;28;20477;-71
2022/12/21 07:13:55;;;;;;;1999.90;999.90;;;9.40;99.90;;;;;;4991131;28;20483;-74
2022/12/21 07:16:23;;;;;;;1999.90;999.90;;;9.40;99.90;;;;;;4991931;28;20458;-70
2022/12/21 07:18:50;;;;;;;1999.90;999.90;;;9.30;99.90;;;;;;4990823;28;20485;-71
2022/12/21 07:21:19;;;;;;;1999.90;999.90;;;9.30;99.90;;;;;;4993082;28;20453;-71
2022/12/21 07:23:47;;;;;;;1999.90;999.90;;;9.40;99.90;;;;;;4990871;28;20517;-72
2022/12/21 07:26:17;;;;;;;1999.90;999.90;;;9.30;99.90;;;;;;4991457;28;20454;-74
2022/12/21 07:28:45;;;;;;;1999.90;999.90;;;9.30;99.90;;;;;;4991951;28;20461;-73
2022/12/21 07:31:13;;;;;;;1999.90;999.90;;;9.30;99.90;;;;;;4991413;28;20450;-73
2022/12/21 07:33:41;;;;;;;1999.90;999.90;;;9.30;99.90;;;;;;4991044;28;20465;-70
2022/12/21 07:36:09;;;;;;;1999.90;999.90;;;9.30;99.90;;;;;;4992449;28;20458;-71
2022/12/21 07:38:38;;;;;;;1999.90;999.90;;;9.30;99.90;;;;;;4992462;28;20459;-74
2022/12/21 07:41:06;;;;;;;1999.90;999.90;;;9.40;99.90;;;;;;4992972;28;20451;-72
2022/12/21 07:43:36;;;;;;;1999.90;999.90;;;9.40;99.90;;;;;;4991857;28;20450;-71
2022/12/21 07:46:03;;;;;;;1999.90;999.90;;;9.40;99.90;;;;;;4992799;28;20461;-71
2022/12/21 07:48:30;;;;;;;1999.90;999.90;;;9.40;99.90;;;;;;4991309;28;20451;-71
2022/12/21 07:50:56;;;;;;;1999.90;999.90;;;9.40;99.90;;;;;;4992556;28;20497;-72
2022/12/21 07:53:23;;;;;;;1999.90;999.90;;;9.50;99.90;;;;;;4990517;28;21043;-71
2022/12/21 07:55:50;;;;;;;1999.90;999.90;;;9.50;99.90;;;;;;4991573;28;20457;-74
2022/12/21 07:58:17;;;;;;;1999.90;999.90;;;9.50;99.90;;;;;;4990300;28;20458;-72
2022/12/21 08:00:46;;;;;;;1999.90;999.90;;;9.60;99.90;;;;;;5000408;28;20454;-70
2022/12/21 08:03:12;;;;;;;1999.90;999.90;;;9.50;99.90;;;;;;5009858;28;20500;-72
2022/12/21 08:05:39;;;;;;;1999.90;999.90;;;9.50;99.90;;;;;;5009772;28;20480;-71
2022/12/21 08:08:06;;;;;;;1999.90;999.90;;;9.50;99.90;;;;;;4992393;28;20476;-72
2022/12/21 08:10:33;;;;;;;1999.90;999.90;;;9.50;99.90;;;;;;5009263;28;20489;-71
2022/12/21 08:13:00;;;;;;;1999.90;999.90;;;9.60;99.90;;;;;;5009634;28;20454;-70
2022/12/21 08:15:27;;;;;;;1999.90;999.90;;;9.60;99.90;;;;;;5007535;28;20470;-71
2022/12/21 08:17:55;;;;;;;1999.90;999.90;;;9.50;99.90;;;;;;5010428;28;20537;-72
2022/12/21 08:20:22;;;;;;;1999.90;999.90;;;9.60;99.90;;;;;;5009784;28;20450;-72
2022/12/21 08:22:50;;;;;;;1999.90;999.90;;;9.60;99.90;;;;;;5009861;28;20893;-71
2022/12/21 08:25:16;;;;;;;1999.90;999.90;;;9.60;99.90;;;;;;5010190;28;20952;-70
2022/12/21 08:27:43;;;;;;;1999.90;999.90;;;9.60;99.90;;;;;;5010421;28;20457;-71
2022/12/21 08:30:10;;;;;;;1999.90;999.90;;;9.60;99.90;;;;;;5009548;28;20854;-70
2022/12/21 08:32:37;;;;;;;1999.90;999.90;;;9.70;99.90;;;;;;5007110;28;20446;-73
2022/12/21 08:35:06;;;;;;;1999.90;999.90;;;9.70;99.90;;;;;;5009365;28;20824;-73
2022/12/21 08:37:33;;;;;;;1999.90;999.90;;;9.70;99.90;;;;;;5009574;28;20454;-72
2022/12/21 08:40:00;;;;;;;1999.90;999.90;;;9.70;99.90;;;;;;5007784;28;20460;-72
2022/12/21 08:42:27;;;;;;;1999.90;999.90;;;9.70;99.90;;;;;;5008421;28;20461;-72
2022/12/21 08:44:54;;;;;;;1999.90;999.90;;;9.70;99.90;;;;;;5008642;28;20473;-72
2022/12/21 08:47:21;;;;;;;1999.90;999.90;;;9.70;99.90;;;;;;4997934;28;20458;-71
2022/12/21 08:49:47;;;;;;;1999.90;999.90;;;9.80;99.90;;;;;;4992281;28;20573;-72
2022/12/21 08:52:15;;;;;;;1999.90;999.90;;;9.80;99.90;;;;;;5008021;28;20537;-71
2022/12/21 08:54:42;;;;;;;1999.90;999.90;;;9.80;99.90;;;;;;5006793;28;20532;-70
2022/12/21 08:57:09;;;;;;;1999.90;999.90;;;9.90;99.90;;;;;;5004227;28;20457;-72
2022/12/21 08:59:36;;;;;;;1999.90;999.90;;;9.90;99.90;;;;;;5007870;28;20442;-71
2022/12/21 09:02:02;;;;;;;1999.90;999.90;;;9.90;99.90;;;;;;5007572;28;20446;-72
2022/12/21 09:04:29;;;;;;;1999.90;999.90;;;9.90;99.90;;;;;;5010217;28;20469;-74
2022/12/21 09:06:56;;;;;;;1999.90;999.90;;;9.90;99.90;;;;;;5010338;28;20458;-74
2022/12/21 09:09:24;;;;;;;1999.90;999.90;;;9.90;99.90;;;;;;5008063;28;20484;-69
2022/12/21 09:11:51;;;;;;;1999.90;999.90;;;9.90;99.90;;;;;;5009354;28;20464;-72
2022/12/21 09:14:18;;;;;;;1999.90;999.90;;;10.00;99.90;;;;;;5007834;28;20469;-71
2022/12/21 09:16:44;;;;;;;1999.90;999.90;;;10.00;99.90;;;;;;5008621;28;20462;-71
2022/12/21 09:19:11;;;;;;;1999.90;999.90;;;10.00;99.90;;;;;;5006315;28;20454;-71
2022/12/21 09:21:38;;;;;;;1999.90;999.90;;;10.00;99.90;;;;;;5008613;28;20801;-71
2022/12/21 09:24:05;;;;;;;1999.90;999.90;;;10.00;99.90;;;;;;5008929;28;21202;-74
2022/12/21 09:26:33;;;;;;;1999.90;999.90;;;10.00;99.90;;;;;;5009672;28;20847;-72
2022/12/21 09:29:00;;;;;;;1999.90;999.90;;;10.10;99.90;;;;;;5007903;28;20472;-71
2022/12/21 09:31:27;;;;;;;1999.90;999.90;;;10.10;99.90;;;;;;5016266;28;20473;-72
2022/12/21 09:33:54;;;;;;;1999.90;999.90;;;10.10;99.90;;;;;;4998464;28;20536;-72
2022/12/21 09:36:22;;;;;;;1999.90;999.90;;;10.10;99.90;;;;;;5013907;28;20450;-72
2022/12/21 09:38:49;;;;;;;1999.90;999.90;;;10.10;99.90;;;;;;5018753;28;20452;-75
2022/12/21 09:41:37;;;;;;;1999.90;999.90;;;10.10;99.90;;;;;;5030460;28;20449;-73
2022/12/21 09:44:20;;;;;;;1999.90;999.90;;;10.00;99.90;;;;;;5016495;28;20461;-71
2022/12/21 09:46:52;;;;;;;1999.90;999.90;;;10.00;99.90;;;;;;5004781;28;20461;-72
2022/12/21 09:49:22;;;;;;;1999.90;999.90;;;10.00;99.90;;;;;;4998174;28;20472;-72
2022/12/21 09:51:54;;;;;;;1999.90;999.90;;;10.00;99.90;;;;;;5004985;28;20457;-72
2022/12/21 09:54:27;;;;;;;1999.90;999.90;;;10.00;99.90;;;;;;5000605;28;20719;-70
2022/12/21 09:56:56;;;;;;;1999.90;999.90;;;10.10;99.90;;;;;;5006289;28;20434;-73
2022/12/21 09:59:23;;;;;;;1999.90;999.90;;;10.10;99.90;;;;;;5006210;28;20434;-72
2022/12/21 10:01:57;;;;;;;1999.90;999.90;;;10.20;99.90;;;;;;4998739;28;20865;-72
2022/12/21 10:04:41;;;;;;;1999.90;999.90;;;10.20;99.90;;;;;;5002270;28;20466;-72
2022/12/21 10:07:33;;;;;;;1999.90;999.90;;;10.20;99.90;;;;;;5005684;28;21133;-72
2022/12/21 10:10:07;;;;;;;1999.90;999.90;;;10.30;99.90;;;;;;5014874;28;20869;-72
2022/12/21 10:12:42;;;;;;;1999.90;999.90;;;10.30;99.90;;;;;;5003608;28;20465;-73
2022/12/21 10:15:22;;;;;;;1999.90;999.90;;;10.30;99.90;;;;;;5009334;28;20472;-71
2022/12/21 10:17:58;;;;;;;1999.90;999.90;;;10.40;99.90;;;;;;5011308;28;20448;-72
2022/12/21 10:20:35;;;;;;;1999.90;999.90;;;10.50;99.90;;;;;;5011315;28;20448;-71
2022/12/21 10:23:05;;;;;;;1999.90;999.90;;;10.50;99.90;;;;;;5017919;28;20445;-70
2022/12/21 10:25:40;;;;;;;1999.90;999.90;;;10.60;99.90;;;;;;5013706;28;20480;-70
2022/12/21 10:28:23;;;;;;;1999.90;999.90;;;10.60;99.90;;;;;;5003272;28;20472;-71
2022/12/21 10:30:57;;;;;;;1999.90;999.90;;;10.60;99.90;;;;;;5012432;28;20867;-72
2022/12/21 10:33:24;;;;;;;1999.90;999.90;;;10.50;99.90;;;;;;5000171;28;20852;-72
2022/12/21 10:35:56;;;;;;;1999.90;999.90;;;10.40;99.90;;;;;;5010630;28;20454;-71
2022/12/21 10:38:24;;;;;;;1999.90;999.90;;;10.40;99.90;;;;;;5007369;28;20472;-71
2022/12/21 10:40:55;;;;;;;1999.90;999.90;;;10.30;99.90;;;;;;5009083;28;20450;-69
2022/12/21 10:43:23;;;;;;;1999.90;999.90;;;10.40;99.90;;;;;;5004414;28;20443;-71
2022/12/21 10:45:50;;;;;;;1999.90;999.90;;;10.40;99.90;;;;;;5007835;28;20480;-71
2022/12/21 10:48:18;;;;;;;1999.90;999.90;;;10.50;99.90;;;;;;5004673;28;20524;-73
2022/12/21 10:50:49;;;;;;;1999.90;999.90;;;10.50;99.90;;;;;;5008375;28;20490;-72
2022/12/21 10:53:24;;;;;;;1999.90;999.90;;;10.60;99.90;;;;;;5006404;28;20458;-71
2022/12/21 10:55:52;;;;;;;1999.90;999.90;;;10.80;99.90;;;;;;5007893;28;20449;-72
2022/12/21 10:58:25;;;;;;;1999.90;999.90;;;10.90;99.90;;;;;;5005571;28;20459;-71
2022/12/21 11:01:03;;;;;;;1999.90;999.90;;;11.00;99.90;;;;;;4999302;28;20466;-72
2022/12/21 11:03:31;;;;;;;1999.90;999.90;;;11.10;99.90;;;;;;5000137;28;20495;-71
2022/12/21 11:06:10;;;;;;;1999.90;999.90;;;11.20;99.90;;;;;;5003563;28;20462;-72
2022/12/21 11:08:44;;;;;;;1999.90;999.90;;;11.20;99.90;;;;;;5003807;28;20453;-71
2022/12/21 11:11:27;;;;;;;1999.90;999.90;;;11.10;99.90;;;;;;5004922;28;20489;-71
2022/12/21 11:13:59;;;;;;;1999.90;999.90;;;11.00;99.90;;;;;;5005918;28;20540;-71
2022/12/21 11:16:29;;;;;;;1999.90;999.90;;;10.90;99.90;;;;;;5006773;28;20453;-72
2022/12/21 11:18:59;;;;;;;1999.90;999.90;;;10.90;99.90;;;;;;5005311;28;20564;-72
2022/12/21 11:21:38;;;;;;;1999.90;999.90;;;11.00;99.90;;;;;;5007091;28;20445;-71
2022/12/21 11:24:12;;;;;;;1999.90;999.90;;;10.90;99.90;;;;;;5005936;28;21191;-71
2022/12/21 11:26:42;;;;;;;1999.90;999.90;;;11.00;99.90;;;;;;5005967;28;20557;-71
2022/12/21 11:29:19;;;;;;;1999.90;999.90;;;11.10;99.90;;;;;;5004082;28;21160;-71
2022/12/21 11:31:46;;;;;;;1999.90;999.90;;;11.20;99.90;;;;;;5003210;28;20513;-70
2022/12/21 11:34:29;;;;;;;1999.90;999.90;;;11.30;99.90;;;;;;5004495;28;20834;-71
2022/12/21 11:36:59;;;;;;;1999.90;999.90;;;11.30;99.90;;;;;;5011889;28;20445;-71
2022/12/21 11:39:26;;;;;;;1999.90;999.90;;;11.40;99.90;;;;;;5009147;28;20457;-70
2022/12/21 11:41:54;;;;;;;1999.90;999.90;;;11.60;99.90;;;;;;5003430;28;20437;-70
2022/12/21 11:44:26;;;;;;;1999.90;999.90;;;11.70;99.90;;;;;;5001040;28;20826;-71
2022/12/21 11:47:16;;;;;;;1999.90;999.90;;;11.80;99.90;;;;;;5000405;28;20466;-71
2022/12/21 11:50:15;;;;;;;1999.90;999.90;;;11.90;99.90;;;;;;5004948;28;20457;-71
2022/12/21 11:53:07;;;;;;;1999.90;999.90;;;11.90;99.90;;;;;;5006497;28;20549;-71
2022/12/21 11:55:41;;;;;;;1999.90;999.90;;;12.00;99.90;;;;;;5006242;28;20472;-72
2022/12/21 11:58:15;;;;;;;1999.90;999.90;;;12.10;99.90;;;;;;5006312;28;20822;-71
2022/12/21 12:00:53;;;;;;;1999.90;999.90;;;12.20;99.90;;;;;;5006536;28;20449;-72
2022/12/21 12:03:46;;;;;;;1999.90;999.90;;;12.30;99.90;;;;;;5008549;28;20460;-71
2022/12/21 12:06:32;;;;;;;1999.90;999.90;;;12.30;99.90;;;;;;5010993;28;20502;-71
2022/12/21 12:09:13;;;;;;;1999.90;999.90;;;12.30;99.90;;;;;;5018234;28;20449;-69
2022/12/21 12:11:52;;;;;;;1999.90;999.90;;;12.30;99.90;;;;;;5018880;28;20483;-71
2022/12/21 12:14:43;;;;;;;1999.90;999.90;;;12.30;99.90;;;;;;5018421;28;20468;-69
2022/12/21 12:17:20;;;;;;;1999.90;999.90;;;12.40;99.90;;;;;;5014244;28;20505;-70
2022/12/21 12:19:56;;;;;;;1999.90;999.90;;;12.50;99.90;;;;;;5013592;28;20454;-70
2022/12/21 12:22:43;;;;;;;1999.90;999.90;;;12.50;99.90;;;;;;5008066;28;20536;-70
2022/12/21 12:25:38;;;;;;;1999.90;999.90;;;12.40;99.90;;;;;;5008268;28;20476;-71
2022/12/21 12:28:21;;;;;;;1999.90;999.90;;;12.50;99.90;;;;;;5007579;28;20876;-70
2022/12/21 12:30:59;;;;;;;1999.90;999.90;;;12.60;99.90;;;;;;5008442;28;20492;-72
2022/12/21 12:33:36;;;;;;;1999.90;999.90;;;12.60;99.90;;;;;;4997484;28;20490;-71
2022/12/21 12:36:19;;;;;;;1999.90;999.90;;;12.70;99.90;;;;;;5009732;28;20437;-72
2022/12/21 12:38:58;;;;;;;1999.90;999.90;;;12.70;99.90;;;;;;5027269;28;20453;-73